Time;durP1;ratioP1;P1;durP2;ratioP2;P2;SDS_P1;SDS_P2;PMS_P1;PMS_P2;Temp;Humidity;BMP_temperature;BMP_pressure;BME280_temperature;BME280_humidity;BME280_pressure;Samples;Min_cycle;Max_cycle;Signal;HPM_P1;HPM_P2
2023/12/13 07:01:38;;;;;;;0.70;0.70;;;10.10;99.90;12.00;99183.00;;;;6041955;22;4171510;-68
2023/12/13 07:04:17;;;;;;;0.80;0.80;;;10.00;99.90;12.70;99201.00;;;;6245719;23;20201;-68
2023/12/13 07:06:58;;;;;;;0.97;0.97;;;10.10;99.90;12.60;99194.00;;;;6247352;22;20605;-68
2023/12/13 07:09:35;;;;;;;1.00;1.00;;;10.30;99.90;12.70;99199.00;;;;6246535;23;20141;-68
2023/12/13 07:12:12;;;;;;;0.80;0.80;;;10.20;99.90;12.70;99200.00;;;;6246052;23;20509;-68
2023/12/13 07:14:54;;;;;;;0.83;0.83;;;10.20;99.90;12.60;99180.00;;;;6246509;23;20550;-68
2023/12/13 07:17:32;;;;;;;0.63;0.63;;;10.20;99.90;12.60;99201.00;;;;6221346;23;20601;-68
2023/12/13 07:19:59;;;;;;;0.60;0.60;;;10.20;99.90;12.40;99194.00;;;;6247045;22;20150;-68
2023/12/13 07:22:30;;;;;;;0.60;0.60;;;10.00;99.90;12.40;99192.00;;;;6246436;23;20335;-68
2023/12/13 07:25:11;;;;;;;0.63;0.63;;;10.00;99.90;12.30;99179.00;;;;6246319;23;20142;-68
2023/12/13 07:27:50;;;;;;;0.60;0.60;;;10.00;99.90;12.20;99201.00;;;;6246104;23;20154;-68
2023/12/13 07:30:24;;;;;;;0.60;0.60;;;10.00;99.90;12.00;99167.00;;;;6245680;23;20216;-68
2023/12/13 07:33:25;;;;;;;0.60;0.60;;;9.90;99.90;11.90;99203.00;;;;6247553;23;20608;-68
2023/12/13 07:36:24;;;;;;;0.90;0.90;;;10.00;99.90;12.20;99201.00;;;;6245674;23;20142;-68
2023/12/13 07:39:07;;;;;;;0.60;0.60;;;10.00;99.90;12.10;99199.00;;;;6239838;22;20211;-68
2023/12/13 07:41:47;;;;;;;0.63;0.63;;;10.00;99.90;12.20;99204.00;;;;6221941;23;20159;-68
2023/12/13 07:44:24;;;;;;;0.60;0.60;;;10.00;99.90;11.90;99207.00;;;;6220338;23;20163;-68
2023/12/13 07:47:13;;;;;;;0.90;0.90;;;9.90;99.90;12.10;99208.00;;;;6245846;23;20142;-68
2023/12/13 07:49:59;;;;;;;0.70;0.70;;;10.00;99.90;13.10;99202.00;;;;6245911;23;20149;-68
2023/12/13 07:52:56;;;;;;;0.70;0.70;;;10.20;99.90;12.30;99195.00;;;;6220834;23;20188;-68
2023/12/13 07:55:53;;;;;;;0.93;0.93;;;10.10;99.90;12.70;99201.00;;;;6233983;23;20166;-68
2023/12/13 07:58:32;;;;;;;0.80;0.80;;;10.30;99.90;13.10;99194.00;;;;6130404;23;20184;-68
2023/12/13 08:01:28;;;;;;;0.70;0.70;;;10.40;99.90;13.30;99185.00;;;;6244546;22;20177;-68
2023/12/13 08:04:02;;;;;;;1.10;1.10;;;10.50;99.90;12.60;99209.00;;;;6237021;22;20172;-68
2023/12/13 08:06:37;;;;;;;0.50;0.50;;;10.40;99.90;12.40;99205.00;;;;6221281;23;20164;-68
2023/12/13 08:09:31;;;;;;;0.70;0.70;;;10.30;99.90;13.10;99213.00;;;;6246923;22;20157;-68
2023/12/13 08:12:20;;;;;;;0.70;0.70;;;10.40;99.90;12.70;99207.00;;;;6245171;23;20705;-68
2023/12/13 08:15:15;;;;;;;2.40;2.30;;;10.40;99.90;12.30;99212.00;;;;6200916;23;20165;-68
2023/12/13 08:17:56;;;;;;;0.70;0.70;;;10.10;99.90;13.00;99218.00;;;;6245060;23;20160;-68
2023/12/13 08:20:42;;;;;;;2.60;2.50;;;10.30;99.90;12.50;99212.00;;;;6245943;23;20155;-68
2023/12/13 08:23:22;;;;;;;1.30;1.27;;;10.40;99.90;12.30;99221.00;;;;6247207;22;20241;-68
2023/12/13 08:26:30;;;;;;;0.60;0.60;;;10.30;99.90;12.70;99231.00;;;;6245738;23;20216;-68
2023/12/13 08:29:31;;;;;;;4.43;1.93;;;10.30;99.90;12.40;99228.00;;;;6227355;23;20155;-68
2023/12/13 08:32:09;;;;;;;0.60;0.60;;;10.20;99.90;12.50;99232.00;;;;6225336;23;20271;-68
2023/12/13 08:35:00;;;;;;;0.60;0.60;;;10.20;99.90;12.70;99230.00;;;;6245776;23;20149;-68
2023/12/13 08:37:46;;;;;;;0.60;0.60;;;10.20;99.90;12.10;99237.00;;;;6129386;23;20176;-68
2023/12/13 08:41:17;;;;;;;1.87;0.83;;;10.20;99.90;12.90;99244.00;;;;6245769;23;20155;-68
2023/12/13 08:43:52;;;;;;;0.50;0.50;;;10.20;99.90;12.20;99248.00;;;;6129913;23;20179;-68
2023/12/13 08:46:47;;;;;;;0.50;0.50;;;10.10;99.90;12.60;99240.00;;;;6246383;22;20478;-68
2023/12/13 08:49:56;;;;;;;0.97;0.97;;;10.30;99.90;12.60;99246.00;;;;6245581;23;20137;-68
2023/12/13 08:53:15;;;;;;;0.60;0.60;;;10.20;99.90;12.70;99238.00;;;;6220908;23;20249;-72
2023/12/13 08:56:18;;;;;;;1.43;1.00;;;10.10;99.90;12.10;99234.00;;;;6220056;23;20154;-69
2023/12/13 08:58:54;;;;;;;0.50;0.50;;;10.20;99.90;12.60;99252.00;;;;6245672;23;20568;-68
2023/12/13 09:01:28;;;;;;;2.93;0.90;;;10.20;99.90;11.90;99258.00;;;;6244986;23;20169;-68
2023/12/13 09:04:05;;;;;;;0.47;0.47;;;10.10;99.90;11.90;99256.00;;;;6219511;23;20575;-69
2023/12/13 09:06:42;;;;;;;0.50;0.50;;;9.90;99.90;12.20;99249.00;;;;6245244;23;20144;-69
2023/12/13 09:09:28;;;;;;;0.60;0.60;;;10.00;99.90;11.90;99260.00;;;;6245225;23;20137;-68
2023/12/13 09:12:05;;;;;;;0.90;0.90;;;9.90;99.90;12.30;99258.00;;;;6246335;22;20142;-68
2023/12/13 09:14:41;;;;;;;0.57;0.57;;;10.00;99.90;12.50;99259.00;;;;6245167;22;20510;-68
2023/12/13 09:17:18;;;;;;;0.77;0.77;;;10.10;99.90;13.30;99262.00;;;;6243104;23;20177;-68
2023/12/13 09:20:00;;;;;;;0.80;0.80;;;10.40;99.90;13.10;99254.00;;;;6244521;23;20564;-68
2023/12/13 09:22:40;;;;;;;0.53;0.53;;;10.50;99.90;12.70;99259.00;;;;6245407;22;20234;-68
2023/12/13 09:25:15;;;;;;;0.60;0.60;;;10.40;99.90;13.30;99261.00;;;;6244481;23;20220;-68
2023/12/13 09:27:58;;;;;;;0.60;0.60;;;10.60;99.90;13.40;99257.00;;;;6220253;23;20661;-68
2023/12/13 09:30:34;;;;;;;0.60;0.60;;;10.60;99.90;13.70;99260.00;;;;6244608;23;20170;-68
2023/12/13 09:33:03;;;;;;;0.93;0.93;;;10.80;99.90;13.70;99237.00;;;;6245609;23;20466;-68
2023/12/13 09:35:35;;;;;;;1.10;1.10;;;11.00;99.90;12.80;99263.00;;;;6246655;22;20388;-68
2023/12/13 09:38:04;;;;;;;0.70;0.70;;;10.70;99.90;13.70;99274.00;;;;6219884;23;20218;-68
2023/12/13 09:40:31;;;;;;;0.60;0.60;;;10.80;99.90;13.20;99241.00;;;;6246977;22;20144;-68
2023/12/13 09:43:00;;;;;;;0.70;0.70;;;10.90;99.90;13.70;99268.00;;;;6244668;23;20175;-68
2023/12/13 09:45:30;;;;;;;1.80;1.70;;;11.00;99.90;13.90;99272.00;;;;6244449;23;20144;-68
2023/12/13 09:47:56;;;;;;;0.82;0.82;;;11.10;99.90;13.00;99270.00;;;;6243857;23;20388;-68
2023/12/13 09:50:26;;;;;;;0.60;0.60;;;10.90;99.90;13.40;99273.00;;;;6244865;23;20671;-68
2023/12/13 09:52:55;;;;;;;0.50;0.50;;;10.90;99.90;12.80;99274.00;;;;6244819;23;20466;-68
2023/12/13 09:55:25;;;;;;;0.50;0.50;;;10.70;99.90;12.30;99280.00;;;;6245197;23;20148;-68
2023/12/13 09:58:22;;;;;;;0.60;0.60;;;10.40;99.90;13.40;99283.00;;;;6246364;22;20145;-68
2023/12/13 10:00:52;;;;;;;0.57;0.57;;;10.60;99.90;13.00;99284.00;;;;6211043;23;20180;-68
2023/12/13 10:03:21;;;;;;;1.53;1.43;;;10.60;99.90;12.80;99291.00;;;;6244401;23;20170;-68
2023/12/13 10:06:01;;;;;;;0.50;0.50;;;10.60;99.90;12.30;99288.00;;;;6246410;22;20168;-68
2023/12/13 10:08:30;;;;;;;0.50;0.50;;;10.50;99.90;13.70;99291.00;;;;6244839;23;20151;-68
2023/12/13 10:11:19;;;;;;;1.37;1.27;;;10.80;99.90;13.70;99291.00;;;;6246058;22;20327;-68
2023/12/13 10:14:17;;;;;;;1.17;0.90;;;10.90;99.90;12.30;99289.00;;;;6217149;23;20160;-68
2023/12/13 10:16:56;;;;;;;0.50;0.50;;;10.60;99.90;12.40;99278.00;;;;6245543;22;20158;-68
2023/12/13 10:19:27;;;;;;;0.53;0.53;;;10.40;99.90;13.40;99294.00;;;;6243919;23;20196;-71
2023/12/13 10:33:57;;;;;;;0.30;0.30;;;9.70;99.90;11.90;99369.00;;;;5072864;28;20596;-68
2023/12/13 10:39:53;;;;;;;0.40;0.40;;;10.10;99.90;12.90;99335.00;;;;5049551;28;20208;-69
2023/12/13 10:42:31;;;;;;;0.93;0.83;;;10.30;99.90;13.50;99325.00;;;;5038240;28;20665;-65
2023/12/13 10:45:03;;;;;;;0.60;0.60;;;10.60;99.90;13.80;99316.00;;;;5050220;28;20278;-65
2023/12/13 10:48:22;;;;;;;0.50;0.50;;;10.90;99.90;12.80;99316.00;;;;5044540;28;20196;-68
2023/12/13 10:51:14;;;;;;;0.50;0.50;;;10.60;99.90;12.80;99305.00;;;;5052508;28;20209;-65
2023/12/13 10:53:50;;;;;;;1.23;0.97;;;10.70;99.90;13.10;99296.00;;;;5045866;28;20197;-68
2023/12/13 10:56:21;;;;;;;1.03;0.83;;;10.60;99.90;13.30;99299.00;;;;5046162;28;20233;-68
2023/12/13 10:58:58;;;;;;;0.50;0.50;;;10.80;99.90;12.70;99298.00;;;;5042211;28;20194;-68
2023/12/13 11:01:34;;;;;;;0.80;0.80;;;10.50;99.90;12.70;99306.00;;;;5047349;28;20270;-67
2023/12/13 11:04:16;;;;;;;0.43;0.43;;;10.40;99.90;13.80;99294.00;;;;5041034;28;20587;-66
2023/12/13 11:07:04;;;;;;;0.40;0.40;;;10.80;99.90;13.60;99307.00;;;;5031900;28;20193;-68
2023/12/13 11:09:50;;;;;;;0.50;0.50;;;11.00;99.90;13.90;99295.00;;;;5048515;28;20247;-67
2023/12/13 11:12:33;;;;;;;0.60;0.60;;;11.10;99.90;13.80;99310.00;;;;5048239;28;20286;-67
2023/12/13 11:15:34;;;;;;;0.60;0.60;;;11.20;99.90;14.70;99310.00;;;;5038550;28;20185;-67
2023/12/13 11:18:21;;;;;;;0.70;0.70;;;11.40;99.90;14.40;99278.00;;;;5037022;28;20183;-67
2023/12/13 11:21:07;;;;;;;1.10;1.10;;;11.60;99.90;13.90;99300.00;;;;5048319;28;20179;-67
2023/12/13 11:24:07;;;;;;;0.83;0.83;;;11.50;99.90;13.80;99315.00;;;;5046243;28;20196;-67
2023/12/13 11:26:58;;;;;;;0.60;0.60;;;11.30;99.90;13.10;99306.00;;;;5062741;28;20201;-67
2023/12/13 11:29:33;;;;;;;0.50;0.50;;;11.00;99.90;14.50;99325.00;;;;5040211;28;20212;-65
2023/12/13 11:32:37;;;;;;;0.73;0.73;;;11.30;99.90;14.40;99324.00;;;;5051438;28;20213;-65
2023/12/13 11:35:18;;;;;;;0.80;0.80;;;11.60;99.90;13.90;99314.00;;;;5047182;28;20221;-68
2023/12/13 11:38:10;;;;;;;3.80;1.90;;;11.50;99.90;13.80;99319.00;;;;5047346;28;20170;-67
2023/12/13 11:40:54;;;;;;;0.67;0.60;;;11.20;99.90;14.00;99319.00;;;;5046192;28;20216;-67
2023/12/13 11:43:49;;;;;;;0.77;0.77;;;11.10;99.90;13.80;99319.00;;;;5037325;28;20310;-67
2023/12/13 11:46:38;;;;;;;0.50;0.50;;;11.30;99.90;13.50;99324.00;;;;5030730;28;20222;-67
2023/12/13 11:49:28;;;;;;;0.40;0.40;;;11.20;99.90;13.00;99327.00;;;;5038018;28;20182;-68
2023/12/13 11:52:04;;;;;;;0.40;0.40;;;11.00;99.90;13.70;99330.00;;;;5025056;28;20218;-67
2023/12/13 11:54:51;;;;;;;0.70;0.70;;;11.00;99.90;14.30;99320.00;;;;5034419;28;20220;-67
2023/12/13 11:57:39;;;;;;;1.70;1.63;;;11.30;99.90;13.90;99325.00;;;;5032791;28;20188;-68
2023/12/13 12:00:05;;;;;;;1.10;0.93;;;11.30;99.90;13.60;99295.00;;;;5034180;28;20212;-66
2023/12/13 12:02:41;;;;;;;1.07;1.00;;;11.20;99.90;13.50;99316.00;;;;5033759;28;20644;-68
2023/12/13 12:05:29;;;;;;;0.50;0.50;;;11.20;99.90;14.00;99326.00;;;;5033506;28;20650;-68
2023/12/13 12:08:13;;;;;;;0.90;0.57;;;11.10;99.90;13.50;99328.00;;;;5024669;28;20185;-68
2023/12/13 12:10:47;;;;;;;0.50;0.50;;;11.20;99.90;13.50;99328.00;;;;5033549;28;20226;-67
2023/12/13 12:13:13;;;;;;;0.70;0.70;;;11.10;99.90;13.60;99327.00;;;;5029835;28;20204;-67
2023/12/13 12:15:42;;;;;;;0.50;0.50;;;11.10;99.90;13.60;99326.00;;;;5034641;28;20705;-67
2023/12/13 12:18:13;;;;;;;0.40;0.40;;;11.00;99.90;14.40;99338.00;;;;5034042;28;20184;-68
2023/12/13 12:20:42;;;;;;;0.80;0.80;;;11.30;99.90;14.30;99335.00;;;;5032963;28;20231;-65
2023/12/13 12:23:10;;;;;;;0.57;0.57;;;11.40;99.90;14.40;99337.00;;;;5050139;28;20246;-67
2023/12/13 12:25:36;;;;;;;0.50;0.50;;;11.40;99.90;14.50;99315.00;;;;5032152;28;20679;-68
2023/12/13 12:28:27;;;;;;;0.90;0.90;;;11.50;99.90;14.00;99344.00;;;;5033433;28;20192;-67
2023/12/13 12:31:10;;;;;;;0.50;0.50;;;11.60;99.90;14.50;99344.00;;;;5049985;28;20748;-68
2023/12/13 12:33:39;;;;;;;3.23;3.03;;;11.50;99.90;14.50;99347.00;;;;5033636;28;20190;-67
2023/12/13 12:36:11;;;;;;;0.60;0.60;;;11.60;99.90;13.80;99317.00;;;;5033282;28;20715;-68
2023/12/13 12:38:54;;;;;;;0.50;0.50;;;11.40;99.90;14.10;99344.00;;;;5034614;28;20197;-67
2023/12/13 12:41:22;;;;;;;0.50;0.50;;;11.20;99.90;14.10;99340.00;;;;5018728;28;20222;-65
2023/12/13 12:43:56;;;;;;;0.50;0.50;;;11.20;99.90;14.50;99349.00;;;;5033520;28;20193;-66
2023/12/13 12:46:30;;;;;;;0.60;0.60;;;11.30;99.90;13.90;99348.00;;;;5025194;28;20648;-66
2023/12/13 12:49:33;;;;;;;0.57;0.57;;;11.30;99.90;13.60;99342.00;;;;5034674;28;20221;-66
2023/12/13 12:52:38;;;;;;;0.70;0.70;;;11.10;99.90;12.50;99341.00;;;;5012718;28;20273;-66
2023/12/13 12:55:29;;;;;;;0.40;0.40;;;10.70;99.90;13.10;99350.00;;;;5043051;28;20274;-67
2023/12/13 12:58:21;;;;;;;0.30;0.30;;;10.70;99.90;13.60;99344.00;;;;4938174;29;20203;-67
2023/12/13 13:00:58;;;;;;;0.50;0.50;;;10.80;99.90;13.40;99357.00;;;;4929335;29;20197;-67
2023/12/13 13:03:26;;;;;;;1.37;1.37;;;10.80;99.90;13.80;99351.00;;;;5000450;28;20257;-67
2023/12/13 13:06:12;;;;;;;0.50;0.50;;;11.00;99.90;13.50;99351.00;;;;5032825;28;20180;-70
2023/12/13 13:08:43;;;;;;;2.67;1.70;;;10.90;99.90;13.40;99344.00;;;;5027770;28;20237;-67
2023/12/13 13:11:19;;;;;;;0.40;0.40;;;10.90;99.90;14.00;99355.00;;;;5032755;28;20220;-67
2023/12/13 13:13:50;;;;;;;0.50;0.50;;;11.00;99.90;14.30;99346.00;;;;5034110;28;20184;-67
2023/12/13 13:16:16;;;;;;;0.50;0.50;;;11.20;99.90;14.50;99355.00;;;;5027548;28;20211;-67
2023/12/13 13:19:03;;;;;;;0.70;0.70;;;11.30;99.90;13.40;99349.00;;;;5048026;28;20201;-67
2023/12/13 13:22:07;;;;;;;0.40;0.40;;;11.20;99.90;13.40;99351.00;;;;5026822;28;20272;-67
2023/12/13 13:24:38;;;;;;;0.40;0.40;;;11.10;99.90;14.30;99338.00;;;;5032772;28;20199;-67
2023/12/13 13:27:04;;;;;;;1.00;1.00;;;11.20;99.90;14.20;99359.00;;;;5031807;28;20654;-67
2023/12/13 13:29:32;;;;;;;0.50;0.50;;;11.30;99.90;14.40;99365.00;;;;5021701;28;20196;-67
2023/12/13 13:32:07;;;;;;;0.40;0.40;;;11.40;99.90;13.80;99358.00;;;;5032241;28;20695;-67
2023/12/13 13:34:33;;;;;;;0.40;0.40;;;11.10;99.90;14.40;99361.00;;;;5031849;28;20225;-67
2023/12/13 13:37:04;;;;;;;1.07;1.07;;;11.40;99.90;15.50;99374.00;;;;5048125;28;20213;-67
2023/12/13 13:39:33;;;;;;;0.50;0.50;;;11.90;99.90;15.60;99380.00;;;;5033285;28;20203;-67
2023/12/13 13:42:08;;;;;;;0.50;0.50;;;12.10;99.90;15.80;99382.00;;;;5033290;28;20229;-67
2023/12/13 13:44:38;;;;;;;1.83;1.73;;;12.30;99.90;16.30;99395.00;;;;5032242;28;20181;-67
2023/12/13 13:47:08;;;;;;;0.60;0.60;;;12.70;99.90;15.10;99394.00;;;;5033188;28;20197;-67
2023/12/13 13:49:42;;;;;;;0.70;0.70;;;12.40;99.90;15.20;99397.00;;;;5032284;28;20188;-67
2023/12/13 13:52:17;;;;;;;0.60;0.60;;;12.20;99.90;15.00;99402.00;;;;5038355;28;20233;-67
2023/12/13 13:54:43;;;;;;;1.27;1.27;;;12.00;99.90;14.90;99404.00;;;;5028493;28;20181;-67
2023/12/13 13:57:09;;;;;;;0.60;0.60;;;11.90;99.90;15.10;99381.00;;;;5027427;28;20183;-67
2023/12/13 13:59:35;;;;;;;0.60;0.60;;;11.90;99.90;16.00;99383.00;;;;5027828;28;20188;-67
2023/12/13 14:02:12;;;;;;;1.43;1.43;;;12.20;99.90;16.00;99408.00;;;;5034154;28;20204;-67
2023/12/13 14:04:48;;;;;;;0.70;0.70;;;12.40;99.90;16.10;99412.00;;;;5031099;28;20190;-68
2023/12/13 14:07:25;;;;;;;0.70;0.70;;;12.50;99.90;16.30;99435.00;;;;5048059;28;20660;-68
2023/12/13 14:09:59;;;;;;;0.70;0.70;;;12.70;99.90;16.00;99435.00;;;;5031422;28;20194;-67
2023/12/13 14:12:36;;;;;;;1.00;1.00;;;12.70;99.90;16.40;99410.00;;;;5027982;28;20549;-67
2023/12/13 14:15:05;;;;;;;0.70;0.70;;;12.70;99.90;16.50;99442.00;;;;5026966;28;20186;-67
2023/12/13 14:17:36;;;;;;;0.70;0.70;;;12.80;99.90;16.30;99446.00;;;;5034833;28;20187;-67
2023/12/13 14:20:06;;;;;;;0.80;0.80;;;12.80;99.90;16.50;99438.00;;;;5042877;28;20663;-67
2023/12/13 14:22:36;;;;;;;0.90;0.90;;;12.80;99.90;15.70;99450.00;;;;5031619;28;20193;-67
2023/12/13 14:25:04;;;;;;;0.70;0.70;;;12.60;99.90;16.40;99451.00;;;;5031509;28;20664;-67
2023/12/13 14:27:31;;;;;;;0.77;0.77;;;12.80;99.90;16.40;99437.00;;;;5045218;28;20193;-67
2023/12/13 14:30:03;;;;;;;0.60;0.60;;;12.90;99.90;16.30;99468.00;;;;5032872;28;20184;-67
2023/12/13 14:32:55;;;;;;;1.00;1.00;;;13.00;99.90;16.30;99463.00;;;;5035773;28;20208;-67
2023/12/13 14:39:47;;;;;;;0.70;0.70;;;12.60;99.90;16.40;99474.00;;;;4990548;28;20290;-67
2023/12/13 14:42:40;;;;;;;0.80;0.80;;;12.90;99.90;16.20;99495.00;;;;4989031;28;20182;-67
2023/12/13 14:46:09;;;;;;;0.80;0.80;;;12.90;99.90;16.30;99492.00;;;;4990694;28;20191;-67
2023/12/13 14:49:22;;;;;;;0.70;0.70;;;12.80;99.90;16.30;99492.00;;;;4990592;28;20695;-67
2023/12/13 14:52:16;;;;;;;0.80;0.80;;;12.70;99.90;16.20;99513.00;;;;4973325;28;20222;-67
2023/12/13 14:55:27;;;;;;;0.80;0.80;;;12.80;99.90;16.00;99503.00;;;;4973154;28;20194;-67
2023/12/13 14:58:07;;;;;;;0.80;0.80;;;12.70;99.90;16.20;99488.00;;;;4974079;28;20662;-67
2023/12/13 15:01:01;;;;;;;1.10;1.10;;;12.70;99.90;15.30;99513.00;;;;5028447;28;20259;-67
2023/12/13 15:03:46;;;;;;;1.47;1.37;;;12.40;99.90;15.60;99526.00;;;;5032205;28;20662;-67
2023/12/13 15:06:32;;;;;;;0.63;0.63;;;12.50;99.90;15.70;99529.00;;;;5030997;28;20184;-67
2023/12/13 15:09:07;;;;;;;2.33;2.23;;;12.50;99.90;15.30;99519.00;;;;5027107;28;20197;-67
2023/12/13 15:11:50;;;;;;;0.70;0.70;;;12.20;99.90;15.40;99531.00;;;;5028543;28;20219;-67
2023/12/13 15:14:23;;;;;;;0.70;0.70;;;12.30;99.90;15.70;99536.00;;;;5031377;28;20188;-67
2023/12/13 15:17:15;;;;;;;1.73;1.73;;;12.30;99.90;15.80;99541.00;;;;5013334;28;20649;-67
2023/12/13 15:20:08;;;;;;;2.80;2.03;;;12.40;99.90;15.30;99516.00;;;;5043086;28;20183;-67
2023/12/13 15:22:45;;;;;;;1.00;1.00;;;12.10;99.90;15.10;99562.00;;;;5034578;28;20590;-67
2023/12/13 15:25:24;;;;;;;0.60;0.60;;;12.20;99.90;15.50;99555.00;;;;5034393;28;20272;-67
2023/12/13 15:28:00;;;;;;;1.63;1.63;;;12.10;99.90;15.50;99554.00;;;;5035014;28;20272;-67
2023/12/13 15:30:35;;;;;;;1.30;1.30;;;12.20;99.90;15.10;99572.00;;;;5033364;28;20248;-67
2023/12/13 15:33:07;;;;;;;1.07;1.07;;;12.20;99.90;15.10;99571.00;;;;5034527;28;20215;-67
2023/12/13 15:35:38;;;;;;;1.87;1.87;;;12.00;99.90;14.50;99573.00;;;;5024969;28;20200;-67
2023/12/13 15:38:15;;;;;;;3.37;3.20;;;12.00;99.90;14.60;99567.00;;;;5024958;28;20181;-67
2023/12/13 15:40:41;;;;;;;2.50;1.77;;;11.70;99.90;13.70;99569.00;;;;5032519;28;20211;-67
2023/12/13 15:43:13;;;;;;;0.50;0.50;;;11.40;99.90;13.70;99579.00;;;;5035288;28;20195;-67
2023/12/13 15:45:41;;;;;;;2.03;1.93;;;11.30;99.90;13.70;99583.00;;;;5035737;28;20189;-68
2023/12/13 15:48:15;;;;;;;1.07;1.00;;;11.20;99.90;14.20;99580.00;;;;5033022;28;20229;-68
2023/12/13 15:50:51;;;;;;;0.70;0.70;;;11.40;99.90;13.70;99588.00;;;;5035439;28;20295;-68
2023/12/13 15:53:28;;;;;;;0.67;0.67;;;11.30;99.90;14.50;99595.00;;;;5032113;28;20199;-68
2023/12/13 15:55:57;;;;;;;0.50;0.50;;;11.40;99.90;14.30;99602.00;;;;5023177;28;20182;-67
2023/12/13 15:58:24;;;;;;;1.33;1.33;;;11.50;99.90;14.00;99604.00;;;;5035144;28;20180;-67
2023/12/13 16:00:58;;;;;;;0.50;0.50;;;11.50;99.90;14.60;99605.00;;;;5033892;28;20183;-67
2023/12/13 16:03:32;;;;;;;0.73;0.73;;;11.50;99.90;14.20;99590.00;;;;5044066;28;20195;-67
2023/12/13 16:06:03;;;;;;;0.60;0.60;;;11.50;99.90;14.40;99623.00;;;;5033607;28;20443;-67
2023/12/13 16:08:40;;;;;;;0.60;0.60;;;11.50;99.90;14.50;99629.00;;;;5033666;28;20710;-67
2023/12/13 16:11:34;;;;;;;1.03;1.03;;;11.60;99.90;14.80;99641.00;;;;5033417;28;20199;-68
2023/12/13 16:14:24;;;;;;;0.50;0.50;;;11.60;99.90;14.20;99636.00;;;;5052333;28;20210;-68
2023/12/13 16:16:52;;;;;;;0.60;0.60;;;11.30;99.90;14.40;99647.00;;;;5033042;28;20558;-68
2023/12/13 16:19:28;;;;;;;1.20;1.20;;;11.40;99.90;14.60;99647.00;;;;5034632;28;20231;-68
2023/12/13 16:22:05;;;;;;;0.60;0.60;;;11.60;99.90;14.80;99665.00;;;;5016027;28;20619;-67
2023/12/13 16:24:36;;;;;;;0.60;0.60;;;11.60;99.90;14.70;99670.00;;;;5024339;28;20666;-68
2023/12/13 16:27:02;;;;;;;0.60;0.60;;;11.70;99.90;14.60;99662.00;;;;5032686;28;20294;-67
2023/12/13 16:29:28;;;;;;;1.00;1.00;;;11.60;99.90;14.60;99665.00;;;;5032607;28;20198;-68
2023/12/13 16:31:54;;;;;;;0.73;0.73;;;11.60;99.90;14.70;99676.00;;;;5030175;28;20212;-68
2023/12/13 16:34:20;;;;;;;0.60;0.60;;;11.70;99.90;14.70;99679.00;;;;5040968;28;20607;-68
2023/12/13 16:36:49;;;;;;;3.37;3.03;;;11.70;99.90;14.30;99667.00;;;;5034119;28;20193;-68
2023/12/13 16:39:16;;;;;;;1.13;0.80;;;11.50;99.90;13.50;99682.00;;;;5040661;28;20201;-68
2023/12/13 16:41:47;;;;;;;0.70;0.70;;;11.30;99.90;13.30;99683.00;;;;5032912;28;20193;-68
2023/12/13 16:44:13;;;;;;;1.43;1.40;;;11.10;99.90;14.40;99691.00;;;;5037851;28;20230;-68
2023/12/13 16:46:39;;;;;;;5.20;4.87;;;11.30;99.90;14.00;99693.00;;;;5028899;28;20211;-68
2023/12/13 16:49:06;;;;;;;1.43;1.33;;;11.30;99.90;14.10;99668.00;;;;5032939;28;20246;-68
2023/12/13 16:51:38;;;;;;;0.60;0.60;;;11.30;99.90;13.60;99708.00;;;;5034126;28;20215;-68
2023/12/13 16:54:04;;;;;;;6.07;5.50;;;11.20;99.90;13.60;99708.00;;;;5034756;28;20604;-68
2023/12/13 16:56:30;;;;;;;1.17;1.17;;;11.10;99.90;13.80;99685.00;;;;5032284;28;20219;-68
2023/12/13 16:58:56;;;;;;;2.33;2.13;;;11.00;99.90;13.30;99718.00;;;;5032497;28;20220;-68
2023/12/13 17:01:22;;;;;;;0.50;0.50;;;10.90;99.90;13.60;99720.00;;;;5032406;28;20179;-68
2023/12/13 17:03:54;;;;;;;0.70;0.70;;;10.90;99.90;13.20;99701.00;;;;5033447;28;20206;-68
2023/12/13 17:06:20;;;;;;;1.57;1.47;;;10.90;99.90;13.40;99731.00;;;;5012448;28;20180;-67
2023/12/13 17:08:52;;;;;;;0.30;0.30;;;10.80;99.90;12.70;99721.00;;;;5032786;28;20192;-68
2023/12/13 17:11:39;;;;;;;1.17;0.87;;;10.60;99.90;13.50;99729.00;;;;5032827;28;20199;-67
2023/12/13 17:14:14;;;;;;;0.33;0.33;;;10.80;99.90;13.90;99737.00;;;;5050880;28;20187;-68
2023/12/13 17:16:40;;;;;;;0.60;0.60;;;10.90;99.90;13.50;99727.00;;;;5033476;28;20204;-68
2023/12/13 17:19:07;;;;;;;2.67;2.50;;;10.90;99.90;13.50;99753.00;;;;5052649;28;20190;-68
2023/12/13 17:21:33;;;;;;;3.10;1.90;;;10.90;99.90;13.30;99749.00;;;;5050373;28;20192;-68
2023/12/13 17:23:59;;;;;;;0.53;0.53;;;10.80;99.90;13.20;99764.00;;;;5035716;28;20735;-68
2023/12/13 17:26:25;;;;;;;0.53;0.53;;;10.70;99.90;13.10;99770.00;;;;5032985;28;20280;-68
2023/12/13 17:28:53;;;;;;;0.40;0.40;;;10.60;99.90;13.20;99772.00;;;;5033546;28;20537;-69
2023/12/13 17:31:19;;;;;;;1.77;1.70;;;10.60;99.90;13.60;99782.00;;;;5048734;28;20199;-68
2023/12/13 17:34:26;;;;;;;0.40;0.40;;;10.80;99.90;13.40;99788.00;;;;5033217;28;20211;-68
2023/12/13 17:37:35;;;;;;;0.60;0.60;;;10.80;99.90;14.40;99790.00;;;;5021650;28;20201;-68
2023/12/13 17:40:26;;;;;;;2.73;0.83;;;11.10;99.90;14.50;99776.00;;;;5031804;28;20195;-68
2023/12/13 17:43:39;;;;;;;0.40;0.40;;;11.30;99.90;14.60;99810.00;;;;5029786;28;20199;-68
2023/12/13 17:46:52;;;;;;;0.80;0.80;;;11.50;99.90;13.30;99817.00;;;;5031124;28;20204;-68
2023/12/13 17:49:53;;;;;;;2.40;2.20;;;11.20;99.90;14.20;99824.00;;;;5039174;28;20185;-67
2023/12/13 17:53:21;;;;;;;0.40;0.40;;;11.10;99.90;14.20;99825.00;;;;5024108;28;20219;-68
2023/12/13 17:56:16;;;;;;;0.70;0.70;;;11.20;99.90;14.20;99831.00;;;;5032065;28;20191;-68
2023/12/13 17:58:59;;;;;;;1.50;1.50;;;11.30;99.90;14.30;99841.00;;;;5011140;28;20727;-68
2023/12/13 18:01:44;;;;;;;1.50;1.20;;;11.30;99.90;13.70;99840.00;;;;5020256;28;20207;-68
2023/12/13 18:04:19;;;;;;;1.83;1.67;;;11.20;99.90;13.30;99847.00;;;;5031888;28;20184;-67
2023/12/13 18:06:50;;;;;;;1.40;1.37;;;11.00;99.90;13.70;99826.00;;;;5031527;28;20191;-68
2023/12/13 18:09:31;;;;;;;0.70;0.70;;;11.10;99.90;13.80;99852.00;;;;5030074;28;20703;-68
2023/12/13 18:12:11;;;;;;;2.60;2.40;;;11.00;99.90;13.40;99829.00;;;;5022921;28;20218;-67
2023/12/13 18:14:54;;;;;;;3.87;2.70;;;11.00;99.90;14.10;99868.00;;;;5019318;28;20194;-67
2023/12/13 18:17:43;;;;;;;1.37;1.03;;;11.10;99.90;13.40;99870.00;;;;5031955;28;20198;-67
2023/12/13 18:20:09;;;;;;;1.17;1.17;;;11.10;99.90;13.50;99845.00;;;;5027259;28;20195;-67
2023/12/13 18:22:58;;;;;;;3.23;3.03;;;10.90;99.90;13.40;99875.00;;;;5033414;28;20198;-67
2023/12/13 18:25:35;;;;;;;0.40;0.40;;;10.80;99.90;13.40;99883.00;;;;5046468;28;20666;-67
2023/12/13 18:28:09;;;;;;;0.50;0.50;;;10.70;99.90;13.80;99885.00;;;;5031042;28;20268;-67
2023/12/13 18:30:46;;;;;;;1.40;0.70;;;10.80;99.90;13.20;99885.00;;;;5024459;28;20189;-67
2023/12/13 18:33:27;;;;;;;0.40;0.40;;;10.80;99.90;13.70;99898.00;;;;5033070;28;20209;-68
2023/12/13 18:36:04;;;;;;;1.33;1.30;;;10.80;99.90;13.00;99906.00;;;;5030712;28;20772;-67
2023/12/13 18:38:35;;;;;;;3.07;2.90;;;10.70;99.90;13.50;99875.00;;;;5031191;28;20277;-67
2023/12/13 18:41:42;;;;;;;1.00;1.00;;;10.80;99.90;13.50;99913.00;;;;5029026;28;20188;-67
2023/12/13 18:44:27;;;;;;;0.52;0.52;;;10.80;99.90;13.50;99914.00;;;;5023838;28;20515;-67
2023/12/13 18:47:22;;;;;;;0.40;0.40;;;10.80;99.90;13.50;99915.00;;;;5031543;28;20178;-67
2023/12/13 18:49:57;;;;;;;0.87;0.87;;;10.70;99.90;13.70;99927.00;;;;5032007;28;20187;-67
2023/12/13 18:52:36;;;;;;;2.10;2.00;;;10.80;99.90;14.00;99930.00;;;;5033190;28;20190;-67
2023/12/13 18:55:11;;;;;;;0.53;0.53;;;10.90;99.90;14.10;99932.00;;;;5033788;28;20659;-67
2023/12/13 18:57:41;;;;;;;0.87;0.87;;;11.00;99.90;14.00;99933.00;;;;5034348;28;20264;-67
2023/12/13 19:00:54;;;;;;;1.37;1.37;;;11.00;99.90;14.30;99941.00;;;;5027659;28;20183;-67
2023/12/13 19:04:07;;;;;;;0.50;0.50;;;11.10;99.90;14.00;99956.00;;;;5036700;28;20196;-67
2023/12/13 19:07:01;;;;;;;5.93;1.13;;;11.00;99.90;13.90;99953.00;;;;5010562;28;20203;-66
2023/12/13 19:10:18;;;;;;;1.57;1.33;;;11.00;99.90;13.30;99961.00;;;;5025225;28;20202;-66
2023/12/13 19:13:24;;;;;;;0.87;0.87;;;10.80;99.90;13.20;99966.00;;;;5019057;28;20206;-67